KOOA/OOA METAR and TAF weather

Enter ICAO airport designator
Station Type Date Time Source
KOOA METAR 2019/04/24 16:15 UTC NOAA

KOOA 241615Z AUTO 14005KT 4SM BR OVC006 12/10 A2996 RMK AO2 T01200100


Station Type Date Time Source
KOOA Decoded METAR 2019/04/24 16:15 UTC NOAA

Oskaloosa, Oskaloosa Municipal Airport, IA, United States (KOOA) 41-13-34N 092-29-37W
Apr 24, 2019 - 12:15 PM EDT / 2019.04.24 1615 UTC
Wind: from the SE (140 degrees) at 6 MPH (5 KT):0
Visibility: 4 mile(s):0
Sky conditions: overcast
Weather: mist
Temperature: 53.6 F (12.0 C)
Dew Point: 50.0 F (10.0 C)
Relative Humidity: 87%
Pressure (altimeter): 29.96 in. Hg (1014 hPa)
ob: KOOA 241615Z AUTO 14005KT 4SM BR OVC006 12/10 A2996 RMK AO2 T01200100
cycle: 16

Station Type Date Time Source
KOOA TAF UTC NOAA

Error!

Example: see airport list